sensor_id;sensor_type;location;lat;lon;timestamp;pressure;altitude;pressure_sealevel;temperature;humidity
83635;BME280;73596;49.482;11.238;2024-03-08T00:00:51;98187.97;;;0.39;82.16
83635;BME280;73596;49.482;11.238;2024-03-08T00:03:17;98185.50;;;0.36;82.14
83635;BME280;73596;49.482;11.238;2024-03-08T00:05:42;98184.69;;;0.35;82.34
83635;BME280;73596;49.482;11.238;2024-03-08T00:08:07;98187.25;;;0.34;82.40
83635;BME280;73596;49.482;11.238;2024-03-08T00:10:34;98176.25;;;0.33;83.00
83635;BME280;73596;49.482;11.238;2024-03-08T00:13:00;98181.22;;;0.38;82.69
83635;BME280;73596;49.482;11.238;2024-03-08T00:15:25;98177.78;;;0.40;83.15
83635;BME280;73596;49.482;11.238;2024-03-08T00:17:50;98176.03;;;0.41;82.67
83635;BME280;73596;49.482;11.238;2024-03-08T00:20:16;98174.31;;;0.43;82.72
83635;BME280;73596;49.482;11.238;2024-03-08T00:22:43;98169.22;;;0.43;82.38
83635;BME280;73596;49.482;11.238;2024-03-08T00:25:08;98173.47;;;0.42;82.58
83635;BME280;73596;49.482;11.238;2024-03-08T00:27:34;98171.00;;;0.39;82.20
83635;BME280;73596;49.482;11.238;2024-03-08T00:29:59;98171.94;;;0.37;82.33
83635;BME280;73596;49.482;11.238;2024-03-08T00:32:25;98171.09;;;0.36;83.64
83635;BME280;73596;49.482;11.238;2024-03-08T00:34:51;98170.19;;;0.39;82.47
83635;BME280;73596;49.482;11.238;2024-03-08T00:37:20;98166.00;;;0.38;83.11
83635;BME280;73596;49.482;11.238;2024-03-08T00:39:47;98164.31;;;0.37;83.35
83635;BME280;73596;49.482;11.238;2024-03-08T00:42:12;98165.22;;;0.34;82.56
83635;BME280;73596;49.482;11.238;2024-03-08T00:44:38;98156.84;;;0.32;83.48
83635;BME280;73596;49.482;11.238;2024-03-08T00:47:05;98157.75;;;0.30;83.45
83635;BME280;73596;49.482;11.238;2024-03-08T00:49:30;98162.84;;;0.30;83.09
83635;BME280;73596;49.482;11.238;2024-03-08T00:51:55;98157.69;;;0.31;83.01
83635;BME280;73596;49.482;11.238;2024-03-08T00:54:21;98159.47;;;0.29;83.32
83635;BME280;73596;49.482;11.238;2024-03-08T00:56:46;98161.25;;;0.26;83.50
83635;BME280;73596;49.482;11.238;2024-03-08T00:59:11;98151.22;;;0.21;82.97
83635;BME280;73596;49.482;11.238;2024-03-08T01:01:39;98151.31;;;0.18;82.79
83635;BME280;73596;49.482;11.238;2024-03-08T01:04:04;98151.50;;;0.12;82.93
83635;BME280;73596;49.482;11.238;2024-03-08T01:06:30;98156.72;;;0.06;83.01
83635;BME280;73596;49.482;11.238;2024-03-08T01:08:55;98143.25;;;0.04;83.41
83635;BME280;73596;49.482;11.238;2024-03-08T01:11:20;98140.78;;;0.03;83.78
83635;BME280;73596;49.482;11.238;2024-03-08T01:13:45;98139.88;;;0.04;84.02
83635;BME280;73596;49.482;11.238;2024-03-08T01:16:12;98138.19;;;0.04;83.47
83635;BME280;73596;49.482;11.238;2024-03-08T01:18:37;98130.56;;;0.04;83.95
83635;BME280;73596;49.482;11.238;2024-03-08T01:21:03;98121.28;;;0.03;83.25
83635;BME280;73596;49.482;11.238;2024-03-08T01:23:28;98120.50;;;0.01;83.79
83635;BME280;73596;49.482;11.238;2024-03-08T01:25:54;98125.56;;;0.01;83.99
83635;BME280;73596;49.482;11.238;2024-03-08T01:28:23;98123.94;;;-0.02;84.05
83635;BME280;73596;49.482;11.238;2024-03-08T01:30:49;98114.72;;;-0.04;84.12
83635;BME280;73596;49.482;11.238;2024-03-08T01:33:20;98113.94;;;-0.08;83.60
83635;BME280;73596;49.482;11.238;2024-03-08T01:35:47;98112.38;;;-0.12;84.11
83635;BME280;73596;49.482;11.238;2024-03-08T01:38:12;98103.22;;;-0.16;83.90
83635;BME280;73596;49.482;11.238;2024-03-08T01:40:38;98102.31;;;-0.15;84.04
83635;BME280;73596;49.482;11.238;2024-03-08T01:45:42;98098.28;;;-0.22;84.53
83635;BME280;73596;49.482;11.238;2024-03-08T01:48:07;98096.66;;;-0.24;83.90
83635;BME280;73596;49.482;11.238;2024-03-08T01:50:32;98096.72;;;-0.26;84.37
83635;BME280;73596;49.482;11.238;2024-03-08T01:52:58;98084.94;;;-0.28;84.02
83635;BME280;73596;49.482;11.238;2024-03-08T01:55:25;98092.59;;;-0.30;84.56
83635;BME280;73596;49.482;11.238;2024-03-08T01:57:51;98086.72;;;-0.32;83.71
83635;BME280;73596;49.482;11.238;2024-03-08T02:00:17;98086.78;;;-0.33;84.04
83635;BME280;73596;49.482;11.238;2024-03-08T02:02:46;98081.72;;;-0.35;84.67
83635;BME280;73596;49.482;11.238;2024-03-08T02:05:12;98077.56;;;-0.36;84.10
83635;BME280;73596;49.482;11.238;2024-03-08T02:07:41;98073.41;;;-0.38;84.75
83635;BME280;73596;49.482;11.238;2024-03-08T02:10:09;98078.47;;;-0.38;84.96
83635;BME280;73596;49.482;11.238;2024-03-08T02:12:34;98068.31;;;-0.38;84.64
83635;BME280;73596;49.482;11.238;2024-03-08T02:15:00;98069.09;;;-0.36;85.07
83635;BME280;73596;49.482;11.238;2024-03-08T02:17:25;98066.50;;;-0.35;84.65
83635;BME280;73596;49.482;11.238;2024-03-08T02:19:50;98072.56;;;-0.39;84.97
83635;BME280;73596;49.482;11.238;2024-03-08T02:22:16;98059.13;;;-0.42;84.86
83635;BME280;73596;49.482;11.238;2024-03-08T02:24:41;98061.88;;;-0.50;85.08
83635;BME280;73596;49.482;11.238;2024-03-08T02:27:06;98061.94;;;-0.53;84.61
83635;BME280;73596;49.482;11.238;2024-03-08T02:29:33;98060.44;;;-0.58;84.76
83635;BME280;73596;49.482;11.238;2024-03-08T02:31:59;98059.72;;;-0.63;84.73
83635;BME280;73596;49.482;11.238;2024-03-08T02:34:24;98061.44;;;-0.66;85.10
83635;BME280;73596;49.482;11.238;2024-03-08T02:36:49;98058.97;;;-0.67;85.63
83635;BME280;73596;49.482;11.238;2024-03-08T02:39:14;98056.34;;;-0.64;85.52
83635;BME280;73596;49.482;11.238;2024-03-08T02:41:40;98052.84;;;-0.60;86.01
83635;BME280;73596;49.482;11.238;2024-03-08T02:44:07;98055.31;;;-0.57;85.77
83635;BME280;73596;49.482;11.238;2024-03-08T02:46:32;98053.53;;;-0.55;85.19
83635;BME280;73596;49.482;11.238;2024-03-08T02:48:57;98050.16;;;-0.55;85.66
83635;BME280;73596;49.482;11.238;2024-03-08T02:51:23;98045.94;;;-0.55;85.44
83635;BME280;73596;49.482;11.238;2024-03-08T02:53:48;98045.03;;;-0.52;85.32
83635;BME280;73596;49.482;11.238;2024-03-08T02:56:16;98046.69;;;-0.51;85.60
83635;BME280;73596;49.482;11.238;2024-03-08T02:58:43;98046.50;;;-0.45;86.27
83635;BME280;73596;49.482;11.238;2024-03-08T03:01:08;98037.97;;;-0.43;85.76
83635;BME280;73596;49.482;11.238;2024-03-08T03:03:35;98028.81;;;-0.47;85.64
83635;BME280;73596;49.482;11.238;2024-03-08T03:06:00;98037.06;;;-0.40;85.59
83635;BME280;73596;49.482;11.238;2024-03-08T03:08:25;98036.13;;;-0.38;84.77
83635;BME280;73596;49.482;11.238;2024-03-08T03:10:51;98026.84;;;-0.37;85.26
83635;BME280;73596;49.482;11.238;2024-03-08T03:13:16;98030.34;;;-0.41;85.44
83635;BME280;73596;49.482;11.238;2024-03-08T03:15:41;98027.03;;;-0.43;85.03
83635;BME280;73596;49.482;11.238;2024-03-08T03:18:07;98024.50;;;-0.43;85.61
83635;BME280;73596;49.482;11.238;2024-03-08T03:20:33;98023.66;;;-0.44;84.75
83635;BME280;73596;49.482;11.238;2024-03-08T03:22:59;98024.56;;;-0.46;85.39
83635;BME280;73596;49.482;11.238;2024-03-08T03:25:26;98021.31;;;-0.51;85.03
83635;BME280;73596;49.482;11.238;2024-03-08T03:27:58;98017.25;;;-0.57;85.21
83635;BME280;73596;49.482;11.238;2024-03-08T03:30:24;98021.53;;;-0.59;85.67
83635;BME280;73596;49.482;11.238;2024-03-08T03:32:51;98024.94;;;-0.60;85.25
83635;BME280;73596;49.482;11.238;2024-03-08T03:35:17;98024.09;;;-0.60;84.92
83635;BME280;73596;49.482;11.238;2024-03-08T03:37:43;98012.34;;;-0.63;85.01
83635;BME280;73596;49.482;11.238;2024-03-08T03:40:27;98021.63;;;-0.62;85.79
83635;BME280;73596;49.482;11.238;2024-03-08T03:42:52;98016.63;;;-0.65;85.22
83635;BME280;73596;49.482;11.238;2024-03-08T03:45:18;98023.50;;;-0.69;85.15
83635;BME280;73596;49.482;11.238;2024-03-08T03:47:45;98012.59;;;-0.72;85.89
83635;BME280;73596;49.482;11.238;2024-03-08T03:50:10;98020.28;;;-0.75;85.22
83635;BME280;73596;49.482;11.238;2024-03-08T03:52:36;98014.38;;;-0.76;85.85
83635;BME280;73596;49.482;11.238;2024-03-08T03:55:01;98015.22;;;-0.75;86.22
83635;BME280;73596;49.482;11.238;2024-03-08T03:57:26;98013.56;;;-0.76;85.50
83635;BME280;73596;49.482;11.238;2024-03-08T03:59:51;98011.03;;;-0.76;85.62
83635;BME280;73596;49.482;11.238;2024-03-08T04:02:17;98008.59;;;-0.79;85.35
83635;BME280;73596;49.482;11.238;2024-03-08T04:04:42;98004.44;;;-0.82;86.18
83635;BME280;73596;49.482;11.238;2024-03-08T04:07:09;98010.34;;;-0.83;86.18
83635;BME280;73596;49.482;11.238;2024-03-08T04:09:35;98007.88;;;-0.84;85.84
83635;BME280;73596;49.482;11.238;2024-03-08T04:12:00;98003.66;;;-0.85;85.48
83635;BME280;73596;49.482;11.238;2024-03-08T04:14:26;98004.56;;;-0.86;85.66
83635;BME280;73596;49.482;11.238;2024-03-08T04:16:51;98002.94;;;-0.89;86.21
83635;BME280;73596;49.482;11.238;2024-03-08T04:19:17;97996.25;;;-0.91;86.77
83635;BME280;73596;49.482;11.238;2024-03-08T04:21:44;97996.25;;;-0.93;86.41
83635;BME280;73596;49.482;11.238;2024-03-08T04:24:09;97992.09;;;-0.94;86.42
83635;BME280;73596;49.482;11.238;2024-03-08T04:26:35;97996.25;;;-0.93;86.40
83635;BME280;73596;49.482;11.238;2024-03-08T04:29:01;97994.56;;;-0.92;86.45
83635;BME280;73596;49.482;11.238;2024-03-08T04:31:26;98000.59;;;-0.96;86.61
83635;BME280;73596;49.482;11.238;2024-03-08T04:33:51;97993.00;;;-0.96;87.16
83635;BME280;73596;49.482;11.238;2024-03-08T04:36:17;97991.28;;;-0.96;86.80
83635;BME280;73596;49.482;11.238;2024-03-08T04:38:42;97987.94;;;-0.96;86.40
83635;BME280;73596;49.482;11.238;2024-03-08T04:41:08;97979.50;;;-0.97;86.79
83635;BME280;73596;49.482;11.238;2024-03-08T04:43:34;97980.31;;;-0.96;87.21
83635;BME280;73596;49.482;11.238;2024-03-08T04:45:59;97976.91;;;-0.95;86.45
83635;BME280;73596;49.482;11.238;2024-03-08T04:48:25;97972.59;;;-0.92;86.86
83635;BME280;73596;49.482;11.238;2024-03-08T04:50:52;97974.91;;;-0.84;87.31
83635;BME280;73596;49.482;11.238;2024-03-08T04:53:19;97971.53;;;-0.85;87.16
83635;BME280;73596;49.482;11.238;2024-03-08T04:55:44;97970.69;;;-0.84;86.62
83635;BME280;73596;49.482;11.238;2024-03-08T04:58:09;97971.50;;;-0.83;86.74
83635;BME280;73596;49.482;11.238;2024-03-08T05:00:34;97973.28;;;-0.87;87.16
83635;BME280;73596;49.482;11.238;2024-03-08T05:03:00;97974.06;;;-0.85;87.05
83635;BME280;73596;49.482;11.238;2024-03-08T05:05:25;97970.75;;;-0.87;86.28
83635;BME280;73596;49.482;11.238;2024-03-08T05:07:53;97972.50;;;-0.89;87.40
83635;BME280;73596;49.482;11.238;2024-03-08T05:10:18;97970.88;;;-0.91;86.90
83635;BME280;73596;49.482;11.238;2024-03-08T05:12:44;97966.84;;;-0.98;86.44
83635;BME280;73596;49.482;11.238;2024-03-08T05:15:09;97970.34;;;-1.02;86.89
83635;BME280;73596;49.482;11.238;2024-03-08T05:17:35;97970.41;;;-1.04;86.82
83635;BME280;73596;49.482;11.238;2024-03-08T05:20:00;97972.13;;;-1.06;87.24
83635;BME280;73596;49.482;11.238;2024-03-08T05:22:25;97966.25;;;-1.06;87.23
83635;BME280;73596;49.482;11.238;2024-03-08T05:24:51;97966.31;;;-1.09;86.89
83635;BME280;73596;49.482;11.238;2024-03-08T05:27:16;97965.56;;;-1.13;86.68
83635;BME280;73596;49.482;11.238;2024-03-08T05:29:42;97956.31;;;-1.14;87.04
83635;BME280;73596;49.482;11.238;2024-03-08T05:32:07;97957.94;;;-1.13;87.04
83635;BME280;73596;49.482;11.238;2024-03-08T05:34:32;97959.66;;;-1.13;87.33
83635;BME280;73596;49.482;11.238;2024-03-08T05:36:58;97954.63;;;-1.15;87.58
83635;BME280;73596;49.482;11.238;2024-03-08T05:39:24;97959.75;;;-1.16;87.88
83635;BME280;73596;49.482;11.238;2024-03-08T05:41:50;97956.47;;;-1.20;88.06
83635;BME280;73596;49.482;11.238;2024-03-08T05:44:15;97948.06;;;-1.22;88.21
83635;BME280;73596;49.482;11.238;2024-03-08T05:46:44;97950.69;;;-1.25;87.32
83635;BME280;73596;49.482;11.238;2024-03-08T05:49:09;97943.16;;;-1.28;87.96
83635;BME280;73596;49.482;11.238;2024-03-08T05:51:39;97947.38;;;-1.27;88.02
83635;BME280;73596;49.482;11.238;2024-03-08T05:54:07;97947.88;;;-1.16;87.65
83635;BME280;73596;49.482;11.238;2024-03-08T05:56:35;97938.44;;;-1.09;88.02
83635;BME280;73596;49.482;11.238;2024-03-08T05:59:01;97941.63;;;-1.03;87.74
83635;BME280;73596;49.482;11.238;2024-03-08T06:01:27;97938.16;;;-0.99;87.40
83635;BME280;73596;49.482;11.238;2024-03-08T06:03:53;97944.84;;;-0.96;87.06
83635;BME280;73596;49.482;11.238;2024-03-08T06:06:21;97943.16;;;-0.97;87.90
83635;BME280;73596;49.482;11.238;2024-03-08T06:08:47;97941.34;;;-0.92;87.15
83635;BME280;73596;49.482;11.238;2024-03-08T06:11:14;97932.88;;;-0.91;87.90
83635;BME280;73596;49.482;11.238;2024-03-08T06:13:40;97934.47;;;-0.89;87.63
83635;BME280;73596;49.482;11.238;2024-03-08T06:16:05;97936.75;;;-0.80;87.62
83635;BME280;73596;49.482;11.238;2024-03-08T06:18:33;97932.50;;;-0.79;87.32
83635;BME280;73596;49.482;11.238;2024-03-08T06:20:59;97928.28;;;-0.79;87.16
83635;BME280;73596;49.482;11.238;2024-03-08T06:23:24;97932.31;;;-0.73;86.76
83635;BME280;73596;49.482;11.238;2024-03-08T06:25:49;97935.63;;;-0.70;87.52
83635;BME280;73596;49.482;11.238;2024-03-08T06:28:15;97926.34;;;-0.71;87.13
83635;BME280;73596;49.482;11.238;2024-03-08T06:30:40;97928.84;;;-0.69;86.76
83635;BME280;73596;49.482;11.238;2024-03-08T06:33:06;97928.75;;;-0.66;87.20
83635;BME280;73596;49.482;11.238;2024-03-08T06:35:32;97922.78;;;-0.63;87.02
83635;BME280;73596;49.482;11.238;2024-03-08T06:37:58;97928.31;;;-0.51;86.71
83635;BME280;73596;49.482;11.238;2024-03-08T06:40:23;97925.44;;;-0.40;86.79
83635;BME280;73596;49.482;11.238;2024-03-08T06:42:49;97920.09;;;-0.31;86.95
83635;BME280;73596;49.482;11.238;2024-03-08T06:45:14;97915.03;;;-0.33;86.17
83635;BME280;73596;49.482;11.238;2024-03-08T06:47:44;97914.94;;;-0.28;86.07
83635;BME280;73596;49.482;11.238;2024-03-08T06:50:10;97922.16;;;-0.16;86.28
83635;BME280;73596;49.482;11.238;2024-03-08T06:52:36;97919.16;;;-0.03;84.82
83635;BME280;73596;49.482;11.238;2024-03-08T06:55:02;97915.53;;;0.06;84.78
83635;BME280;73596;49.482;11.238;2024-03-08T06:57:30;97909.50;;;0.10;85.02
83635;BME280;73596;49.482;11.238;2024-03-08T06:59:56;97911.03;;;0.14;85.30
83635;BME280;73596;49.482;11.238;2024-03-08T07:02:22;97904.16;;;0.18;84.96
83635;BME280;73596;49.482;11.238;2024-03-08T07:04:50;97910.84;;;0.20;84.85
83635;BME280;73596;49.482;11.238;2024-03-08T07:07:15;97910.84;;;0.20;85.24
83635;BME280;73596;49.482;11.238;2024-03-08T07:09:40;97909.03;;;0.24;84.50
83635;BME280;73596;49.482;11.238;2024-03-08T07:12:07;97907.25;;;0.26;84.60
83635;BME280;73596;49.482;11.238;2024-03-08T07:14:33;97897.78;;;0.31;85.01
83635;BME280;73596;49.482;11.238;2024-03-08T07:16:58;97906.91;;;0.36;84.48
83635;BME280;73596;49.482;11.238;2024-03-08T07:19:23;97902.56;;;0.40;85.29
83635;BME280;73596;49.482;11.238;2024-03-08T07:21:49;97899.13;;;0.41;84.80
83635;BME280;73596;49.482;11.238;2024-03-08T07:24:14;97906.72;;;0.42;84.39
83635;BME280;73596;49.482;11.238;2024-03-08T07:26:45;97898.25;;;0.42;84.83
83635;BME280;73596;49.482;11.238;2024-03-08T07:29:14;97902.16;;;0.52;84.06
83635;BME280;73596;49.482;11.238;2024-03-08T07:31:39;97893.50;;;0.57;84.36
83635;BME280;73596;49.482;11.238;2024-03-08T07:34:38;97897.63;;;0.60;83.87
83635;BME280;73596;49.482;11.238;2024-03-08T07:37:05;97894.16;;;0.62;84.22
83635;BME280;73596;49.482;11.238;2024-03-08T07:39:31;97889.84;;;0.64;84.24
83635;BME280;73596;49.482;11.238;2024-03-08T07:41:57;97899.16;;;0.66;84.44
83635;BME280;73596;49.482;11.238;2024-03-08T07:44:22;97895.44;;;0.74;84.21
83635;BME280;73596;49.482;11.238;2024-03-08T07:46:47;97891.00;;;0.79;84.43
83635;BME280;73596;49.482;11.238;2024-03-08T07:49:12;97883.13;;;0.87;83.93
83635;BME280;73596;49.482;11.238;2024-03-08T07:51:39;97881.47;;;0.86;84.17
83635;BME280;73596;49.482;11.238;2024-03-08T07:54:04;97883.88;;;0.89;83.41
83635;BME280;73596;49.482;11.238;2024-03-08T07:56:30;97883.78;;;0.92;83.12
83635;BME280;73596;49.482;11.238;2024-03-08T07:58:55;97885.38;;;0.94;83.42
83635;BME280;73596;49.482;11.238;2024-03-08T08:01:21;97884.50;;;0.95;84.13
83635;BME280;73596;49.482;11.238;2024-03-08T08:03:46;97889.16;;;1.07;83.15
83635;BME280;73596;49.482;11.238;2024-03-08T08:06:15;97884.50;;;1.18;83.56
83635;BME280;73596;49.482;11.238;2024-03-08T08:08:44;97877.47;;;1.25;83.29
83635;BME280;73596;49.482;11.238;2024-03-08T08:11:09;97876.59;;;1.26;83.40
83635;BME280;73596;49.482;11.238;2024-03-08T08:13:36;97875.66;;;1.28;83.05
83635;BME280;73596;49.482;11.238;2024-03-08T08:16:03;97868.72;;;1.32;83.21
83635;BME280;73596;49.482;11.238;2024-03-08T08:18:29;97860.78;;;1.40;83.29
83635;BME280;73596;49.482;11.238;2024-03-08T08:20:55;97865.72;;;1.44;82.61
83635;BME280;73596;49.482;11.238;2024-03-08T08:23:20;97862.16;;;1.48;82.97
83635;BME280;73596;49.482;11.238;2024-03-08T08:25:47;97858.91;;;1.66;82.69
83635;BME280;73596;49.482;11.238;2024-03-08T08:28:16;97859.94;;;1.82;81.84
83635;BME280;73596;49.482;11.238;2024-03-08T08:30:43;97844.31;;;1.91;81.64
83635;BME280;73596;49.482;11.238;2024-03-08T08:33:08;97847.25;;;2.03;81.74
83635;BME280;73596;49.482;11.238;2024-03-08T08:35:33;97848.16;;;2.02;81.22
83635;BME280;73596;49.482;11.238;2024-03-08T08:37:59;97840.63;;;2.19;81.05
83635;BME280;73596;49.482;11.238;2024-03-08T08:40:27;97829.28;;;2.26;80.48
83635;BME280;73596;49.482;11.238;2024-03-08T08:42:52;97829.81;;;2.34;80.16
83635;BME280;73596;49.482;11.238;2024-03-08T08:45:18;97837.09;;;2.62;79.57
83635;BME280;73596;49.482;11.238;2024-03-08T08:47:44;97832.16;;;2.77;78.29
83635;BME280;73596;49.482;11.238;2024-03-08T08:50:10;97825.34;;;2.96;77.39
83635;BME280;73596;49.482;11.238;2024-03-08T08:52:37;97826.25;;;3.14;76.53
83635;BME280;73596;49.482;11.238;2024-03-08T08:55:03;97826.59;;;3.25;76.26
83635;BME280;73596;49.482;11.238;2024-03-08T08:57:29;97819.75;;;3.26;75.51
83635;BME280;73596;49.482;11.238;2024-03-08T08:59:56;97817.25;;;3.43;74.84
83635;BME280;73596;49.482;11.238;2024-03-08T09:02:22;97812.00;;;3.46;74.76
83635;BME280;73596;49.482;11.238;2024-03-08T09:04:47;97816.16;;;3.65;74.16
83635;BME280;73596;49.482;11.238;2024-03-08T09:07:13;97815.81;;;3.90;73.72
83635;BME280;73596;49.482;11.238;2024-03-08T09:09:39;97813.72;;;3.98;73.05
83635;BME280;73596;49.482;11.238;2024-03-08T09:12:04;97811.91;;;4.17;72.21
83635;BME280;73596;49.482;11.238;2024-03-08T09:14:29;97811.31;;;4.29;72.45
83635;BME280;73596;49.482;11.238;2024-03-08T09:16:55;97803.47;;;4.32;72.13
83635;BME280;73596;49.482;11.238;2024-03-08T09:19:20;97800.31;;;4.44;71.77
83635;BME280;73596;49.482;11.238;2024-03-08T09:21:48;97798.41;;;4.48;72.08
83635;BME280;73596;49.482;11.238;2024-03-08T09:24:13;97794.53;;;4.57;71.83
83635;BME280;73596;49.482;11.238;2024-03-08T09:26:38;97803.69;;;4.61;72.08
83635;BME280;73596;49.482;11.238;2024-03-08T09:29:08;97788.31;;;4.78;70.30
83635;BME280;73596;49.482;11.238;2024-03-08T09:31:35;97790.72;;;4.96;69.50
83635;BME280;73596;49.482;11.238;2024-03-08T09:34:03;97795.44;;;5.04;69.70
83635;BME280;73596;49.482;11.238;2024-03-08T09:36:28;97787.75;;;5.04;68.43
83635;BME280;73596;49.482;11.238;2024-03-08T09:38:57;97795.28;;;5.23;69.20
83635;BME280;73596;49.482;11.238;2024-03-08T09:41:22;97783.63;;;5.01;70.03
83635;BME280;73596;49.482;11.238;2024-03-08T09:43:48;97776.47;;;5.08;69.45
83635;BME280;73596;49.482;11.238;2024-03-08T09:46:14;97781.91;;;5.18;68.79
83635;BME280;73596;49.482;11.238;2024-03-08T09:48:39;97773.81;;;5.25;67.82
83635;BME280;73596;49.482;11.238;2024-03-08T09:51:07;97777.41;;;5.52;67.36
83635;BME280;73596;49.482;11.238;2024-03-08T09:53:33;97769.56;;;5.55;67.44
83635;BME280;73596;49.482;11.238;2024-03-08T09:55:58;97767.00;;;5.55;66.82
83635;BME280;73596;49.482;11.238;2024-03-08T09:58:24;97765.81;;;5.61;67.31
83635;BME280;73596;49.482;11.238;2024-03-08T10:00:59;97759.41;;;5.84;65.90
83635;BME280;73596;49.482;11.238;2024-03-08T10:03:27;97761.28;;;5.96;65.63
83635;BME280;73596;49.482;11.238;2024-03-08T10:05:53;97759.44;;;5.98;66.40
83635;BME280;73596;49.482;11.238;2024-03-08T10:08:21;97747.19;;;6.03;65.87
83635;BME280;73596;49.482;11.238;2024-03-08T10:10:46;97746.28;;;6.18;66.07
83635;BME280;73596;49.482;11.238;2024-03-08T10:13:12;97750.53;;;6.19;65.84
83635;BME280;73596;49.482;11.238;2024-03-08T10:15:39;97746.84;;;6.23;65.15
83635;BME280;73596;49.482;11.238;2024-03-08T10:18:05;97748.13;;;6.30;65.52
83635;BME280;73596;49.482;11.238;2024-03-08T10:20:31;97732.94;;;6.27;65.31
83635;BME280;73596;49.482;11.238;2024-03-08T10:23:03;97732.84;;;6.14;66.06
83635;BME280;73596;49.482;11.238;2024-03-08T10:25:30;97731.38;;;6.24;65.31
83635;BME280;73596;49.482;11.238;2024-03-08T10:27:56;97740.63;;;6.41;65.05
83635;BME280;73596;49.482;11.238;2024-03-08T10:30:21;97728.63;;;6.42;63.35
83635;BME280;73596;49.482;11.238;2024-03-08T10:32:47;97740.66;;;6.55;65.15
83635;BME280;73596;49.482;11.238;2024-03-08T10:35:13;97729.63;;;6.67;62.44
83635;BME280;73596;49.482;11.238;2024-03-08T10:37:45;97722.00;;;6.66;64.32
83635;BME280;73596;49.482;11.238;2024-03-08T10:40:19;97725.41;;;6.80;62.18
83635;BME280;73596;49.482;11.238;2024-03-08T10:42:54;97716.69;;;6.83;62.25
83635;BME280;73596;49.482;11.238;2024-03-08T10:48:08;97719.66;;;7.03;62.85
83635;BME280;73596;49.482;11.238;2024-03-08T10:50:40;97709.72;;;7.12;60.85
83635;BME280;73596;49.482;11.238;2024-03-08T10:53:06;97722.28;;;7.16;60.47
83635;BME280;73596;49.482;11.238;2024-03-08T10:55:33;97706.38;;;7.24;58.41
83635;BME280;73596;49.482;11.238;2024-03-08T10:57:58;97702.78;;;7.26;60.92
83635;BME280;73596;49.482;11.238;2024-03-08T11:00:25;97695.56;;;7.45;59.42
83635;BME280;73596;49.482;11.238;2024-03-08T11:02:54;97698.78;;;7.61;59.29
83635;BME280;73596;49.482;11.238;2024-03-08T11:05:36;97697.81;;;7.50;60.64
83635;BME280;73596;49.482;11.238;2024-03-08T11:08:06;97689.59;;;7.45;60.41
83635;BME280;73596;49.482;11.238;2024-03-08T11:10:51;97690.13;;;7.50;58.38
83635;BME280;73596;49.482;11.238;2024-03-08T11:13:38;97680.88;;;7.60;58.79
83635;BME280;73596;49.482;11.238;2024-03-08T11:16:09;97674.56;;;7.91;56.26
83635;BME280;73596;49.482;11.238;2024-03-08T11:18:35;97673.84;;;7.89;57.51
83635;BME280;73596;49.482;11.238;2024-03-08T11:21:03;97663.63;;;7.75;57.67
83635;BME280;73596;49.482;11.238;2024-03-08T11:23:32;97662.09;;;7.97;55.64
83635;BME280;73596;49.482;11.238;2024-03-08T11:25:58;97664.13;;;8.17;55.26
83635;BME280;73596;49.482;11.238;2024-03-08T11:28:24;97660.84;;;8.15;55.44
83635;BME280;73596;49.482;11.238;2024-03-08T11:33:26;97657.38;;;8.29;54.61
83635;BME280;73596;49.482;11.238;2024-03-08T11:35:52;97649.97;;;8.24;54.55
83635;BME280;73596;49.482;11.238;2024-03-08T11:38:28;97641.00;;;8.17;57.58
83635;BME280;73596;49.482;11.238;2024-03-08T11:40:56;97636.25;;;8.24;56.49
83635;BME280;73596;49.482;11.238;2024-03-08T11:43:22;97641.22;;;8.14;59.07
83635;BME280;73596;49.482;11.238;2024-03-08T11:45:47;97636.38;;;7.97;56.51
83635;BME280;73596;49.482;11.238;2024-03-08T11:48:13;97632.69;;;7.89;59.55
83635;BME280;73596;49.482;11.238;2024-03-08T11:50:38;97634.44;;;7.88;58.72
83635;BME280;73596;49.482;11.238;2024-03-08T11:53:03;97626.84;;;7.87;59.53
83635;BME280;73596;49.482;11.238;2024-03-08T11:55:30;97618.88;;;8.02;56.61
83635;BME280;73596;49.482;11.238;2024-03-08T11:58:03;97617.78;;;8.06;58.96
83635;BME280;73596;49.482;11.238;2024-03-08T12:00:29;97614.34;;;8.18;56.03
83635;BME280;73596;49.482;11.238;2024-03-08T12:05:28;97601.88;;;8.25;58.67
83635;BME280;73596;49.482;11.238;2024-03-08T12:07:57;97591.53;;;8.01;59.80
83635;BME280;73596;49.482;11.238;2024-03-08T12:10:23;97580.78;;;8.20;58.41
83635;BME280;73596;49.482;11.238;2024-03-08T12:12:51;97576.13;;;8.38;58.95
83635;BME280;73596;49.482;11.238;2024-03-08T12:15:19;97576.72;;;8.54;59.65
83635;BME280;73596;49.482;11.238;2024-03-08T12:17:48;97581.16;;;8.52;59.09
83635;BME280;73596;49.482;11.238;2024-03-08T12:20:22;97570.94;;;8.50;59.85
83635;BME280;73596;49.482;11.238;2024-03-08T12:22:48;97579.09;;;8.57;57.46
83635;BME280;73596;49.482;11.238;2024-03-08T12:25:14;97568.59;;;8.71;58.38
83635;BME280;73596;49.482;11.238;2024-03-08T12:27:41;97569.09;;;8.76;57.84
83635;BME280;73596;49.482;11.238;2024-03-08T12:30:26;97563.66;;;8.68;59.04
83635;BME280;73596;49.482;11.238;2024-03-08T12:32:59;97565.75;;;8.86;55.11
83635;BME280;73596;49.482;11.238;2024-03-08T12:35:26;97559.84;;;8.97;55.37
83635;BME280;73596;49.482;11.238;2024-03-08T12:37:53;97557.06;;;9.11;57.11
83635;BME280;73596;49.482;11.238;2024-03-08T12:40:25;97554.88;;;9.29;55.93
83635;BME280;73596;49.482;11.238;2024-03-08T12:42:51;97547.72;;;9.21;58.05
83635;BME280;73596;49.482;11.238;2024-03-08T12:45:17;97548.09;;;9.39;57.41
83635;BME280;73596;49.482;11.238;2024-03-08T12:47:42;97550.22;;;9.34;57.60
83635;BME280;73596;49.482;11.238;2024-03-08T12:50:09;97544.91;;;9.24;57.41
83635;BME280;73596;49.482;11.238;2024-03-08T12:52:34;97538.66;;;9.50;54.56
83635;BME280;73596;49.482;11.238;2024-03-08T12:55:00;97533.34;;;9.30;56.71
83635;BME280;73596;49.482;11.238;2024-03-08T12:57:32;97527.13;;;9.32;57.44
83635;BME280;73596;49.482;11.238;2024-03-08T12:59:59;97519.75;;;9.28;57.32
83635;BME280;73596;49.482;11.238;2024-03-08T13:02:24;97526.91;;;9.35;56.45